createdAt,value
2019-01-23T00:01:52.520Z,80.54
2019-01-23T00:04:22.291Z,80.36
2019-01-23T00:06:51.898Z,80.62
2019-01-23T00:09:21.593Z,80.38
2019-01-23T00:11:50.923Z,80.50
2019-01-23T00:14:20.724Z,80.68
2019-01-23T00:16:50.587Z,80.80
2019-01-23T00:19:20.291Z,80.75
2019-01-23T00:21:49.957Z,81.00
2019-01-23T00:24:19.684Z,80.99
2019-01-23T00:26:49.615Z,80.84
2019-01-23T00:29:19.368Z,80.68
2019-01-23T00:31:49.031Z,80.56
2019-01-23T00:34:18.827Z,79.91
2019-01-23T00:36:48.823Z,79.71
2019-01-23T00:39:18.668Z,79.79
2019-01-23T00:41:48.538Z,79.96
2019-01-23T00:44:18.197Z,79.89
2019-01-23T00:46:48.024Z,79.71
2019-01-23T00:49:17.776Z,79.42
2019-01-23T00:51:47.029Z,79.17
2019-01-23T00:54:17.339Z,79.03
2019-01-23T00:56:47.129Z,79.03
2019-01-23T00:59:16.758Z,78.97
2019-01-23T01:01:46.530Z,78.81
2019-01-23T01:04:16.190Z,78.55
2019-01-23T01:06:45.928Z,78.37
2019-01-23T01:09:15.915Z,78.35
2019-01-23T01:11:45.862Z,77.86
2019-01-23T01:14:15.525Z,77.84
2019-01-23T01:16:45.141Z,77.77
2019-01-23T01:19:17.108Z,78.19
2019-01-23T01:21:46.737Z,78.26
2019-01-23T01:24:16.410Z,78.18
2019-01-23T01:26:46.312Z,78.43
2019-01-23T01:29:16.174Z,78.55
2019-01-23T01:31:46.087Z,78.92
2019-01-23T01:34:16.000Z,79.10
2019-01-23T01:36:45.585Z,79.25
2019-01-23T01:39:15.231Z,79.36
2019-01-23T01:41:45.130Z,79.28
2019-01-23T01:44:14.817Z,79.14
2019-01-23T01:46:44.573Z,78.95
2019-01-23T01:49:14.339Z,78.43
2019-01-23T01:51:43.598Z,78.23
2019-01-23T01:54:13.224Z,78.22
2019-01-23T01:56:42.845Z,77.97
2019-01-23T01:59:12.568Z,78.06
2019-01-23T02:01:42.466Z,78.25
2019-01-23T02:04:12.094Z,78.38
2019-01-23T02:06:41.709Z,78.28
2019-01-23T02:09:11.410Z,78.37
2019-01-23T02:11:41.195Z,78.35
2019-01-23T02:14:10.978Z,78.34
2019-01-23T02:16:40.953Z,78.51
2019-01-23T02:19:10.836Z,78.36
2019-01-23T02:21:41.002Z,78.50
2019-01-23T02:24:10.781Z,78.59
2019-01-23T02:26:40.727Z,78.63
2019-01-23T02:29:10.420Z,78.31
2019-01-23T02:31:40.064Z,78.09
2019-01-23T02:34:09.976Z,78.28
2019-01-23T02:36:39.538Z,77.99
2019-01-23T02:39:09.224Z,77.74
2019-01-23T02:41:38.947Z,77.79
2019-01-23T02:44:08.737Z,77.72
2019-01-23T02:46:38.249Z,77.41
2019-01-23T02:49:08.049Z,76.94
2019-01-23T02:51:37.496Z,76.63
2019-01-23T02:54:07.195Z,76.71
2019-01-23T02:56:36.876Z,76.66
2019-01-23T02:59:06.726Z,76.72
2019-01-23T03:01:36.481Z,76.79
2019-01-23T03:04:06.256Z,76.92
2019-01-23T03:06:35.891Z,77.05
2019-01-23T03:09:07.251Z,77.11
2019-01-23T03:11:37.100Z,77.33
2019-01-23T03:14:06.768Z,77.64
2019-01-23T03:16:36.563Z,77.68
2019-01-23T03:19:06.550Z,77.64
2019-01-23T03:21:36.282Z,77.98
2019-01-23T03:24:06.560Z,78.01
2019-01-23T03:26:36.296Z,78.04
2019-01-23T03:29:06.151Z,78.05
2019-01-23T03:31:35.960Z,78.31
2019-01-23T03:34:05.801Z,78.21
2019-01-23T03:36:35.477Z,77.93
2019-01-23T03:39:07.006Z,78.02
2019-01-23T03:41:36.797Z,78.10
2019-01-23T03:44:06.438Z,78.15
2019-01-23T03:46:36.115Z,78.14
2019-01-23T03:49:05.958Z,78.31
2019-01-23T03:51:35.409Z,78.50
2019-01-23T03:54:05.054Z,78.75
2019-01-23T03:56:34.827Z,78.98
2019-01-23T03:59:04.357Z,79.11
2019-01-23T04:01:34.040Z,79.23
2019-01-23T04:04:03.842Z,79.45
2019-01-23T04:06:33.466Z,79.94
2019-01-23T04:09:03.161Z,80.56
2019-01-23T04:11:33.099Z,81.04
2019-01-23T04:14:02.788Z,81.07
2019-01-23T04:16:32.483Z,80.96
2019-01-23T04:19:01.978Z,80.84
2019-01-23T04:21:31.793Z,80.54
2019-01-23T04:24:01.453Z,80.36
2019-01-23T04:26:32.028Z,80.21
2019-01-23T04:29:01.624Z,80.04
2019-01-23T04:31:31.172Z,79.89
2019-01-23T04:34:00.989Z,79.29
2019-01-23T04:36:30.702Z,78.72
2019-01-23T04:39:00.512Z,78.72
2019-01-23T04:41:30.378Z,78.55
2019-01-23T04:44:00.035Z,78.54
2019-01-23T04:46:29.731Z,78.04
2019-01-23T04:48:59.579Z,78.00
2019-01-23T04:51:36.924Z,77.72
2019-01-23T04:54:07.028Z,77.25
2019-01-23T04:56:36.824Z,77.08
2019-01-23T04:59:06.426Z,76.78
2019-01-23T05:01:36.330Z,76.74
2019-01-23T05:04:06.105Z,76.94
2019-01-23T05:06:35.771Z,77.01
2019-01-23T05:09:07.266Z,77.18
2019-01-23T05:11:37.049Z,77.17
2019-01-23T05:14:06.857Z,76.90
2019-01-23T05:16:36.654Z,76.96
2019-01-23T05:19:06.308Z,77.10
2019-01-23T05:21:36.071Z,77.17
2019-01-23T05:24:05.823Z,77.33
2019-01-23T05:26:35.489Z,77.51
2019-01-23T05:29:07.335Z,77.89
2019-01-23T05:31:37.109Z,78.08
2019-01-23T05:34:06.863Z,78.48
2019-01-23T05:36:36.517Z,79.59
2019-01-23T05:39:07.952Z,80.91
2019-01-23T05:41:37.587Z,81.13
2019-01-23T05:44:07.320Z,81.36
2019-01-23T05:46:36.982Z,81.28
2019-01-23T05:49:06.559Z,81.20
2019-01-23T05:51:35.905Z,81.10
2019-01-23T05:54:05.859Z,81.24
2019-01-23T05:56:35.520Z,81.29
2019-01-23T05:59:05.740Z,81.38
2019-01-23T06:01:35.392Z,81.69
2019-01-23T06:04:04.984Z,81.81
2019-01-23T06:06:34.642Z,82.00
2019-01-23T06:09:05.951Z,82.19
2019-01-23T06:11:35.681Z,82.24
2019-01-23T06:14:05.283Z,82.44
2019-01-23T06:16:35.014Z,82.64
2019-01-23T06:19:04.660Z,82.69
2019-01-23T06:21:34.484Z,82.86
2019-01-23T06:24:04.325Z,83.09
2019-01-23T06:26:34.096Z,83.04
2019-01-23T06:29:03.647Z,82.98
2019-01-23T06:31:35.459Z,82.70
2019-01-23T06:34:05.085Z,82.37
2019-01-23T06:36:34.663Z,81.76
2019-01-23T06:39:06.318Z,80.83
2019-01-23T06:41:36.073Z,80.73
2019-01-23T06:44:05.925Z,80.66
2019-01-23T06:46:35.808Z,80.50
2019-01-23T06:49:05.399Z,80.61
2019-01-23T06:51:34.691Z,80.77
2019-01-23T06:54:04.365Z,80.86
2019-01-23T06:56:34.137Z,81.61
2019-01-23T06:59:03.859Z,82.11
2019-01-23T07:01:33.597Z,83.26
2019-01-23T07:04:06.278Z,83.45
2019-01-23T07:06:35.906Z,84.20
2019-01-23T07:09:07.631Z,84.37
2019-01-23T07:11:37.187Z,84.66
2019-01-23T07:14:06.916Z,84.28
2019-01-23T07:16:36.934Z,83.63
2019-01-23T07:19:06.618Z,83.56
2019-01-23T07:21:36.365Z,83.55
2019-01-23T07:24:06.103Z,83.59
2019-01-23T07:26:35.606Z,83.94
2019-01-23T07:29:05.302Z,84.03
2019-01-23T07:31:34.794Z,84.30
2019-01-23T07:34:04.941Z,84.45
2019-01-23T07:36:34.527Z,84.65
2019-01-23T07:39:05.967Z,84.94
2019-01-23T07:41:35.630Z,85.14
2019-01-23T07:44:05.185Z,85.36
2019-01-23T07:46:34.994Z,85.65
2019-01-23T07:49:04.687Z,86.03
2019-01-23T07:51:40.659Z,86.26
2019-01-23T07:54:10.317Z,86.10
2019-01-23T07:56:40.141Z,85.85
2019-01-23T07:59:10.007Z,85.33
2019-01-23T08:01:39.680Z,84.60
2019-01-23T08:04:09.273Z,84.07
2019-01-23T08:06:38.904Z,84.01
2019-01-23T08:09:08.804Z,84.05
2019-01-23T08:11:38.484Z,84.19
2019-01-23T08:14:08.166Z,83.87
2019-01-23T08:16:37.914Z,83.70
2019-01-23T08:19:07.484Z,83.41
2019-01-23T08:21:37.163Z,82.79
2019-01-23T08:24:06.839Z,82.25
2019-01-23T08:26:36.397Z,82.07
2019-01-23T08:29:06.297Z,82.38
2019-01-23T08:31:35.815Z,82.49
2019-01-23T08:34:05.597Z,82.30
2019-01-23T08:36:35.654Z,82.25
2019-01-23T08:39:07.358Z,82.42
2019-01-23T08:41:36.925Z,82.31
2019-01-23T08:44:06.608Z,82.28
2019-01-23T08:46:36.289Z,82.05
2019-01-23T08:49:06.192Z,81.86
2019-01-23T08:51:35.882Z,81.50
2019-01-23T08:54:05.638Z,80.98
2019-01-23T08:56:35.268Z,79.58
2019-01-23T08:59:05.079Z,78.09
2019-01-23T09:01:34.606Z,77.67
2019-01-23T09:04:04.340Z,77.32
2019-01-23T09:06:34.242Z,77.06
2019-01-23T09:09:04.816Z,76.55
2019-01-23T09:11:34.514Z,76.34
2019-01-23T09:14:04.371Z,76.11
2019-01-23T09:16:34.227Z,76.29
2019-01-23T09:19:03.998Z,76.07
2019-01-23T09:21:33.711Z,75.93
2019-01-23T09:24:03.286Z,76.00
2019-01-23T09:26:32.945Z,76.06
2019-01-23T09:29:02.725Z,75.84
2019-01-23T09:31:40.487Z,75.60
2019-01-23T09:34:18.905Z,75.42
2019-01-23T09:37:02.820Z,75.30
2019-01-23T09:39:44.545Z,74.98
2019-01-23T09:42:32.241Z,74.91
2019-01-23T09:45:11.138Z,74.84
2019-01-23T09:47:46.553Z,74.74
2019-01-23T09:50:28.225Z,74.47
2019-01-23T09:53:08.769Z,73.93
2019-01-23T09:55:38.595Z,73.37
2019-01-23T09:58:08.290Z,73.37
2019-01-23T10:00:37.957Z,73.30
2019-01-23T10:03:07.562Z,73.42
2019-01-23T10:05:37.314Z,73.24
2019-01-23T10:08:07.027Z,73.08
2019-01-23T10:10:36.826Z,72.92
2019-01-23T10:13:06.502Z,72.92
2019-01-23T10:15:43.938Z,72.83
2019-01-23T10:18:13.569Z,72.47
2019-01-23T10:20:43.139Z,72.06
2019-01-23T10:23:12.847Z,71.76
2019-01-23T10:25:42.547Z,72.16
2019-01-23T10:28:12.131Z,72.43
2019-01-23T10:30:41.957Z,72.39
2019-01-23T10:33:11.743Z,72.93
2019-01-23T10:35:41.701Z,73.57
2019-01-23T10:38:12.216Z,74.06
2019-01-23T10:40:41.998Z,74.38
2019-01-23T10:43:11.823Z,74.94
2019-01-23T10:45:41.495Z,74.54
2019-01-23T10:48:11.307Z,74.37
2019-01-23T10:50:40.907Z,74.01
2019-01-23T10:53:10.891Z,74.45
2019-01-23T10:55:40.615Z,74.68
2019-01-23T10:58:10.285Z,73.96
2019-01-23T11:00:40.923Z,73.17
2019-01-23T11:03:10.805Z,72.02
2019-01-23T11:05:40.470Z,71.71
2019-01-23T11:08:10.165Z,71.31
2019-01-23T11:10:39.983Z,71.21
2019-01-23T11:13:09.782Z,70.93
2019-01-23T11:15:39.729Z,69.65
2019-01-23T11:18:09.421Z,68.86
2019-01-23T11:20:39.428Z,68.99
2019-01-23T11:23:09.262Z,68.52
2019-01-23T11:25:39.128Z,68.36
2019-01-23T11:28:08.726Z,67.73
2019-01-23T11:30:38.321Z,68.26
2019-01-23T11:33:08.181Z,68.62
2019-01-23T11:35:37.796Z,68.32
2019-01-23T11:38:07.630Z,66.40
2019-01-23T11:40:38.030Z,66.32
2019-01-23T11:43:07.656Z,66.61
2019-01-23T11:45:37.521Z,66.87
2019-01-23T11:48:07.340Z,67.37
2019-01-23T11:50:37.177Z,68.53
2019-01-23T11:53:07.298Z,68.71
2019-01-23T11:55:37.042Z,68.23
2019-01-23T11:58:06.575Z,67.67
2019-01-23T12:00:37.219Z,66.33
2019-01-23T12:03:06.989Z,66.47
2019-01-23T12:05:36.779Z,67.31
2019-01-23T12:08:06.743Z,67.30
2019-01-23T12:10:36.359Z,67.33
2019-01-23T12:13:05.905Z,66.61
2019-01-23T12:15:40.837Z,66.53
2019-01-23T12:18:07.232Z,66.14
2019-01-23T12:20:37.098Z,65.56
2019-01-23T12:23:06.797Z,64.45
2019-01-23T12:25:36.747Z,64.06
2019-01-23T12:28:06.538Z,64.48
2019-01-23T12:30:36.408Z,63.39
2019-01-23T12:33:06.239Z,63.36
2019-01-23T12:35:36.183Z,62.92
2019-01-23T12:38:06.088Z,63.48
2019-01-23T12:40:35.929Z,64.39
2019-01-23T12:43:06.361Z,64.46
2019-01-23T12:45:36.016Z,64.65
2019-01-23T12:48:05.947Z,63.45
2019-01-23T12:50:35.496Z,63.16
2019-01-23T12:53:05.388Z,63.11
2019-01-23T12:55:35.071Z,62.25
2019-01-23T12:58:05.067Z,62.19
2019-01-23T13:00:34.725Z,62.78
2019-01-23T13:03:04.321Z,63.50
2019-01-23T13:05:33.940Z,64.79
2019-01-23T13:08:03.838Z,65.51
2019-01-23T13:10:34.048Z,67.22
2019-01-23T13:13:03.753Z,67.75
2019-01-23T13:15:33.842Z,68.41
2019-01-23T13:18:03.582Z,69.58
2019-01-23T13:20:33.402Z,69.92
2019-01-23T13:23:03.181Z,69.17
2019-01-23T13:25:33.054Z,67.26
2019-01-23T13:28:03.318Z,66.79
2019-01-23T13:30:33.113Z,64.77
2019-01-23T13:33:02.734Z,64.51
2019-01-23T13:35:38.974Z,63.60
2019-01-23T13:38:11.602Z,62.05
2019-01-23T13:40:41.594Z,61.53
2019-01-23T13:43:11.588Z,61.87
2019-01-23T13:45:43.501Z,60.94
2019-01-23T13:48:13.163Z,60.44
2019-01-23T13:50:42.836Z,59.80
2019-01-23T13:53:12.909Z,59.87
2019-01-23T13:55:42.604Z,59.70
2019-01-23T13:58:12.356Z,59.04
2019-01-23T14:00:42.780Z,59.02
2019-01-23T14:03:12.601Z,58.50
2019-01-23T14:05:42.463Z,59.30
2019-01-23T14:08:12.180Z,60.19
2019-01-23T14:10:41.806Z,60.43
2019-01-23T14:13:11.509Z,61.07
2019-01-23T14:15:41.550Z,60.79
2019-01-23T14:18:11.424Z,61.01
2019-01-23T14:20:41.145Z,61.57
2019-01-23T14:23:10.851Z,61.09
2019-01-23T14:25:40.626Z,59.35
2019-01-23T14:28:10.458Z,59.16
2019-01-23T14:30:42.154Z,58.79
2019-01-23T14:33:12.014Z,57.82
2019-01-23T14:35:41.905Z,57.70
2019-01-23T14:38:11.684Z,57.19
2019-01-23T14:40:41.393Z,56.88
2019-01-23T14:43:11.187Z,57.64
2019-01-23T14:45:41.092Z,56.89
2019-01-23T14:48:13.194Z,55.87
2019-01-23T14:50:43.052Z,56.49
2019-01-23T14:53:12.861Z,55.09
2019-01-23T14:55:42.711Z,53.68
2019-01-23T14:58:12.790Z,54.13
2019-01-23T15:00:42.770Z,54.98
2019-01-23T15:03:12.502Z,55.75
2019-01-23T15:05:42.386Z,57.45
2019-01-23T15:08:12.348Z,58.04
2019-01-23T15:10:42.271Z,59.60
2019-01-23T15:13:12.102Z,60.12
2019-01-23T15:15:41.762Z,60.54
2019-01-23T15:18:11.430Z,60.25
2019-01-23T15:20:41.416Z,59.98
2019-01-23T15:23:11.149Z,59.40
2019-01-23T15:25:41.055Z,58.63
2019-01-23T15:28:10.789Z,58.48
2019-01-23T15:30:40.473Z,57.86
2019-01-23T15:33:10.342Z,56.32
2019-01-23T15:35:39.990Z,55.88
2019-01-23T15:38:09.712Z,55.68
2019-01-23T15:40:39.333Z,56.39
2019-01-23T15:43:09.035Z,56.08
2019-01-23T15:45:38.775Z,55.99
2019-01-23T15:48:08.592Z,56.19
2019-01-23T15:50:40.820Z,57.27
2019-01-23T15:53:10.395Z,57.66
2019-01-23T15:55:40.067Z,57.86
2019-01-23T15:58:10.092Z,57.93
2019-01-23T16:00:39.927Z,58.07
2019-01-23T16:03:09.758Z,58.40
2019-01-23T16:05:39.857Z,57.88
2019-01-23T16:08:09.506Z,58.82
2019-01-23T16:10:39.240Z,58.84
2019-01-23T16:13:08.949Z,58.63
2019-01-23T16:15:38.451Z,58.82
2019-01-23T16:18:08.353Z,59.38
2019-01-23T16:20:38.061Z,59.21
2019-01-23T16:23:07.992Z,58.96
2019-01-23T16:25:37.822Z,59.37
2019-01-23T16:28:07.506Z,60.04
2019-01-23T16:30:37.509Z,59.83
2019-01-23T16:33:07.302Z,59.85
2019-01-23T16:35:38.720Z,60.34
2019-01-23T16:38:08.843Z,60.93
2019-01-23T16:40:38.584Z,61.69
2019-01-23T16:43:08.445Z,62.14
2019-01-23T16:45:38.260Z,62.94
2019-01-23T16:48:07.920Z,63.61
2019-01-23T16:50:37.746Z,64.18
2019-01-23T16:53:09.840Z,64.20
2019-01-23T16:55:39.896Z,64.56
2019-01-23T16:58:09.706Z,65.20
2019-01-23T17:00:39.435Z,65.50
2019-01-23T17:03:09.170Z,65.67
2019-01-23T17:05:39.069Z,65.66
2019-01-23T17:08:08.981Z,65.89
2019-01-23T17:10:38.561Z,66.20
2019-01-23T17:13:08.511Z,66.19
2019-01-23T17:15:38.311Z,66.56
2019-01-23T17:18:08.167Z,66.97
2019-01-23T17:20:40.523Z,67.08
2019-01-23T17:23:10.136Z,67.55
2019-01-23T17:25:40.033Z,68.49
2019-01-23T17:28:10.245Z,69.46
2019-01-23T17:30:40.321Z,69.92
2019-01-23T17:33:09.985Z,70.27
2019-01-23T17:35:39.786Z,70.56
2019-01-23T17:38:09.371Z,71.05
2019-01-23T17:40:39.579Z,71.20
2019-01-23T17:43:10.040Z,71.49
2019-01-23T17:45:40.702Z,71.85
2019-01-23T17:48:12.003Z,72.09
2019-01-23T17:50:41.738Z,72.39
2019-01-23T17:53:11.622Z,72.84
2019-01-23T17:55:41.651Z,73.14
2019-01-23T17:58:11.955Z,73.36
2019-01-23T18:00:43.125Z,73.45
2019-01-23T18:03:12.908Z,73.67
2019-01-23T18:05:43.135Z,73.87
2019-01-23T18:08:12.839Z,74.30
2019-01-23T18:10:42.569Z,75.19
2019-01-23T18:13:12.581Z,75.80
2019-01-23T18:15:42.615Z,75.89
2019-01-23T18:18:13.177Z,76.03
2019-01-23T18:20:42.970Z,76.63
2019-01-23T18:23:12.833Z,77.05
2019-01-23T18:25:42.666Z,77.12
2019-01-23T18:28:12.471Z,77.08
2019-01-23T18:30:50.113Z,77.42
2019-01-23T18:33:28.830Z,77.26
2019-01-23T18:36:10.466Z,77.10
2019-01-23T18:38:49.302Z,77.51
2019-01-23T18:41:30.202Z,77.64
2019-01-23T18:44:06.463Z,77.64
2019-01-23T18:46:58.049Z,77.26
2019-01-23T18:49:34.275Z,77.53
2019-01-23T18:52:15.312Z,77.63
2019-01-23T18:54:45.263Z,77.31
2019-01-23T18:57:21.048Z,77.45
2019-01-23T18:59:51.049Z,77.24
2019-01-23T19:02:20.847Z,77.16
2019-01-23T19:04:50.523Z,77.58
2019-01-23T19:07:20.626Z,77.86
2019-01-23T19:09:50.529Z,77.93
2019-01-23T19:12:20.605Z,78.31
2019-01-23T19:14:50.681Z,78.35
2019-01-23T19:17:20.939Z,78.69
2019-01-23T19:19:54.238Z,79.12
2019-01-23T19:22:24.235Z,79.48
2019-01-23T19:24:54.012Z,79.65
2019-01-23T19:27:23.805Z,79.84
2019-01-23T19:29:53.432Z,79.81
2019-01-23T19:32:23.469Z,79.68
2019-01-23T19:34:53.633Z,79.57
2019-01-23T19:37:23.756Z,79.02
2019-01-23T19:39:53.416Z,78.97
2019-01-23T19:42:23.324Z,78.96
2019-01-23T19:44:53.058Z,79.17
2019-01-23T19:47:22.941Z,79.09
2019-01-23T19:49:52.670Z,79.20
2019-01-23T19:52:22.283Z,78.84
2019-01-23T19:54:52.315Z,78.76
2019-01-23T19:57:22.382Z,78.86
2019-01-23T19:59:53.093Z,78.88
2019-01-23T20:02:23.251Z,78.81
2019-01-23T20:04:53.408Z,78.76
2019-01-23T20:07:23.231Z,78.70
2019-01-23T20:09:53.180Z,78.89
2019-01-23T20:12:23.473Z,79.17
2019-01-23T20:14:53.415Z,79.44
2019-01-23T20:17:23.503Z,79.66
2019-01-23T20:19:53.644Z,79.94
2019-01-23T20:22:23.579Z,80.24
2019-01-23T20:24:53.481Z,80.31
2019-01-23T20:27:23.649Z,80.61
2019-01-23T20:29:53.724Z,80.85
2019-01-23T20:32:23.965Z,81.04
2019-01-23T20:34:54.070Z,81.32
2019-01-23T20:37:24.027Z,81.38
2019-01-23T20:39:53.814Z,81.31
2019-01-23T20:42:23.611Z,81.43
2019-01-23T20:44:56.443Z,81.12
2019-01-23T20:47:26.323Z,80.71
2019-01-23T20:49:56.159Z,81.04
2019-01-23T20:52:26.371Z,81.29
2019-01-23T20:54:56.580Z,81.35
2019-01-23T20:57:26.357Z,81.63
2019-01-23T20:59:56.102Z,81.89
2019-01-23T21:02:27.955Z,81.96
2019-01-23T21:04:57.737Z,82.32
2019-01-23T21:07:27.724Z,82.36
2019-01-23T21:10:07.671Z,82.70
2019-01-23T21:12:37.399Z,82.64
2019-01-23T21:15:07.605Z,82.60
2019-01-23T21:17:37.259Z,82.71
2019-01-23T21:20:09.362Z,82.35
2019-01-23T21:22:39.282Z,81.63
2019-01-23T21:25:10.342Z,82.02
2019-01-23T21:27:40.310Z,82.10
2019-01-23T21:30:15.660Z,82.20
2019-01-23T21:32:45.367Z,82.43
2019-01-23T21:35:15.435Z,82.69
2019-01-23T21:37:45.361Z,82.89
2019-01-23T21:40:17.547Z,83.37
2019-01-23T21:42:47.244Z,83.20
2019-01-23T21:45:17.620Z,83.07
2019-01-23T21:47:48.152Z,83.32
2019-01-23T21:50:26.040Z,83.27
2019-01-23T21:52:55.771Z,83.35
2019-01-23T21:55:25.836Z,83.67
2019-01-23T21:57:55.593Z,83.89
2019-01-23T22:00:28.768Z,84.28
2019-01-23T22:03:00.265Z,84.29
2019-01-23T22:05:30.503Z,84.47
2019-01-23T22:08:00.243Z,84.87
2019-01-23T22:10:29.826Z,84.67
2019-01-23T22:12:59.590Z,84.82
2019-01-23T22:15:31.315Z,84.83
2019-01-23T22:18:01.407Z,84.84
2019-01-23T22:20:31.001Z,84.92
2019-01-23T22:23:00.753Z,84.77
2019-01-23T22:25:30.555Z,84.82
2019-01-23T22:28:00.531Z,84.70
2019-01-23T22:30:34.396Z,84.76
2019-01-23T22:33:04.176Z,84.90
2019-01-23T22:35:33.792Z,84.90
2019-01-23T22:38:03.493Z,84.92
2019-01-23T22:40:33.273Z,84.87
2019-01-23T22:43:03.357Z,84.81
2019-01-23T22:45:33.297Z,85.01
2019-01-23T22:48:04.945Z,85.16
2019-01-23T22:50:34.780Z,85.36
2019-01-23T22:53:04.417Z,85.37
2019-01-23T22:55:34.619Z,85.12
2019-01-23T22:58:04.784Z,85.19
2019-01-23T23:00:46.551Z,85.25
2019-01-23T23:03:16.456Z,85.35
2019-01-23T23:05:46.270Z,85.62
2019-01-23T23:08:16.746Z,85.69
2019-01-23T23:10:46.351Z,85.89
2019-01-23T23:13:15.921Z,85.74
2019-01-23T23:15:45.908Z,85.50
2019-01-23T23:18:15.619Z,85.60
2019-01-23T23:20:45.303Z,85.44
2019-01-23T23:23:15.048Z,85.44
2019-01-23T23:25:45.953Z,85.16
2019-01-23T23:28:15.768Z,85.04
2019-01-23T23:30:45.617Z,85.20
2019-01-23T23:33:15.391Z,85.07
2019-01-23T23:35:44.991Z,85.15
2019-01-23T23:38:14.781Z,85.38
2019-01-23T23:40:44.591Z,85.32
2019-01-23T23:43:14.446Z,85.38
2019-01-23T23:45:44.151Z,85.29
2019-01-23T23:48:13.775Z,85.32
2019-01-23T23:50:43.455Z,85.27
2019-01-23T23:53:13.250Z,85.13
2019-01-23T23:55:42.908Z,85.15
2019-01-23T23:58:12.730Z,85.25
